sensor_id;sensor_type;location;lat;lon;timestamp;pressure;altitude;pressure_sealevel;temperature;humidity
11712;BME280;5912;51.034;6.984;2023-11-21T00:02:19;56610.75;;;-142.13;74.55
11712;BME280;5912;51.034;6.984;2023-11-21T00:04:45;56602.72;;;-142.13;74.81
11712;BME280;5912;51.034;6.984;2023-11-21T00:07:11;56554.66;;;-142.13;74.96
11712;BME280;5912;51.034;6.984;2023-11-21T00:09:36;56604.72;;;-142.13;74.95
11712;BME280;5912;51.034;6.984;2023-11-21T00:12:02;56566.66;;;-142.13;74.97
11712;BME280;5912;51.034;6.984;2023-11-21T00:14:27;56616.75;;;-142.13;74.62
11712;BME280;5912;51.034;6.984;2023-11-21T00:16:53;56630.78;;;-142.13;74.64
11712;BME280;5912;51.034;6.984;2023-11-21T00:19:18;56612.75;;;-142.13;75.02
11712;BME280;5912;51.034;6.984;2023-11-21T00:21:46;56620.75;;;-142.13;75.23
11712;BME280;5912;51.034;6.984;2023-11-21T00:24:12;56634.78;;;-142.13;74.65
11712;BME280;5912;51.034;6.984;2023-11-21T00:26:39;56634.78;;;-142.13;74.62
11712;BME280;5912;51.034;6.984;2023-11-21T00:29:04;56602.72;;;-142.13;74.75
11712;BME280;5912;51.034;6.984;2023-11-21T00:31:34;56602.72;;;-142.13;74.65
11712;BME280;5912;51.034;6.984;2023-11-21T00:33:59;56612.75;;;-142.13;75.19
11712;BME280;5912;51.034;6.984;2023-11-21T00:36:24;56596.72;;;-142.13;75.25
11712;BME280;5912;51.034;6.984;2023-11-21T00:38:51;56628.78;;;-142.13;75.11
11712;BME280;5912;51.034;6.984;2023-11-21T00:41:16;56634.78;;;-142.13;75.27
11712;BME280;5912;51.034;6.984;2023-11-21T00:43:41;56628.78;;;-142.13;75.06
11712;BME280;5912;51.034;6.984;2023-11-21T00:46:07;56682.88;;;-142.13;75.27
11712;BME280;5912;51.034;6.984;2023-11-21T00:48:33;56618.75;;;-142.13;75.13
11712;BME280;5912;51.034;6.984;2023-11-21T00:50:58;56638.78;;;-142.13;75.08
11712;BME280;5912;51.034;6.984;2023-11-21T00:53:23;56638.78;;;-142.13;75.27
11712;BME280;5912;51.034;6.984;2023-11-21T00:55:49;56670.84;;;-142.13;75.30
11712;BME280;5912;51.034;6.984;2023-11-21T00:58:14;56656.81;;;-142.13;75.52
11712;BME280;5912;51.034;6.984;2023-11-21T01:00:39;56630.78;;;-142.13;75.74
11712;BME280;5912;51.034;6.984;2023-11-21T01:03:05;56636.78;;;-142.13;75.55
11712;BME280;5912;51.034;6.984;2023-11-21T01:05:30;56656.81;;;-142.13;75.89
11712;BME280;5912;51.034;6.984;2023-11-21T01:07:55;56700.91;;;-142.13;76.12
11712;BME280;5912;51.034;6.984;2023-11-21T01:10:21;56648.81;;;-142.13;76.13
11712;BME280;5912;51.034;6.984;2023-11-21T01:12:46;56646.81;;;-142.13;75.82
11712;BME280;5912;51.034;6.984;2023-11-21T01:15:12;56642.78;;;-142.13;76.44
11712;BME280;5912;51.034;6.984;2023-11-21T01:17:38;56626.78;;;-142.13;76.59
11712;BME280;5912;51.034;6.984;2023-11-21T01:20:04;56620.75;;;-142.13;76.23
11712;BME280;5912;51.034;6.984;2023-11-21T01:22:35;56644.81;;;-142.13;76.30
11712;BME280;5912;51.034;6.984;2023-11-21T01:25:01;56642.78;;;-142.13;76.42
11712;BME280;5912;51.034;6.984;2023-11-21T01:27:29;56632.78;;;-142.13;76.57
11712;BME280;5912;51.034;6.984;2023-11-21T01:29:54;56618.75;;;-142.13;76.32
11712;BME280;5912;51.034;6.984;2023-11-21T01:32:20;56630.78;;;-142.13;76.72
11712;BME280;5912;51.034;6.984;2023-11-21T01:34:45;56612.75;;;-142.13;76.32
11712;BME280;5912;51.034;6.984;2023-11-21T01:37:10;56624.75;;;-142.13;76.13
11712;BME280;5912;51.034;6.984;2023-11-21T01:39:37;56624.75;;;-142.13;76.42
11712;BME280;5912;51.034;6.984;2023-11-21T01:42:04;56628.78;;;-142.13;76.34
11712;BME280;5912;51.034;6.984;2023-11-21T01:44:30;56628.78;;;-142.13;76.21
11712;BME280;5912;51.034;6.984;2023-11-21T01:46:56;56662.81;;;-142.13;76.46
11712;BME280;5912;51.034;6.984;2023-11-21T01:49:23;56616.75;;;-142.13;76.37
11712;BME280;5912;51.034;6.984;2023-11-21T01:51:49;56616.75;;;-142.13;76.11
11712;BME280;5912;51.034;6.984;2023-11-21T01:54:17;56624.75;;;-142.13;76.24
11712;BME280;5912;51.034;6.984;2023-11-21T01:56:46;56626.78;;;-142.13;76.48
11712;BME280;5912;51.034;6.984;2023-11-21T01:59:14;56662.81;;;-142.13;76.19
11712;BME280;5912;51.034;6.984;2023-11-21T02:01:43;56626.78;;;-142.13;76.69
11712;BME280;5912;51.034;6.984;2023-11-21T02:04:09;56620.75;;;-142.13;76.15
11712;BME280;5912;51.034;6.984;2023-11-21T02:06:35;56610.75;;;-142.13;76.24
11712;BME280;5912;51.034;6.984;2023-11-21T02:09:00;56620.75;;;-142.13;76.10
11712;BME280;5912;51.034;6.984;2023-11-21T02:11:25;56628.78;;;-142.13;76.55
11712;BME280;5912;51.034;6.984;2023-11-21T02:13:52;56648.81;;;-142.13;76.24
11712;BME280;5912;51.034;6.984;2023-11-21T02:16:19;56640.78;;;-142.13;76.24
11712;BME280;5912;51.034;6.984;2023-11-21T02:18:47;56630.78;;;-142.13;76.25
11712;BME280;5912;51.034;6.984;2023-11-21T02:21:14;56616.75;;;-142.13;76.43
11712;BME280;5912;51.034;6.984;2023-11-21T02:23:39;56620.75;;;-142.13;76.14
11712;BME280;5912;51.034;6.984;2023-11-21T02:26:07;56626.78;;;-142.13;76.56
11712;BME280;5912;51.034;6.984;2023-11-21T02:28:32;56600.72;;;-142.13;76.37
11712;BME280;5912;51.034;6.984;2023-11-21T02:30:58;56616.75;;;-142.13;76.44
11712;BME280;5912;51.034;6.984;2023-11-21T02:33:24;56592.72;;;-142.13;76.20
11712;BME280;5912;51.034;6.984;2023-11-21T02:35:50;56604.72;;;-142.13;76.21
11712;BME280;5912;51.034;6.984;2023-11-21T02:38:20;56614.75;;;-142.13;76.44
11712;BME280;5912;51.034;6.984;2023-11-21T02:40:45;56620.75;;;-142.13;76.35
11712;BME280;5912;51.034;6.984;2023-11-21T02:43:10;56604.72;;;-142.13;76.42
11712;BME280;5912;51.034;6.984;2023-11-21T02:45:36;56616.75;;;-142.13;76.37
11712;BME280;5912;51.034;6.984;2023-11-21T02:48:01;56624.75;;;-142.13;76.23
11712;BME280;5912;51.034;6.984;2023-11-21T02:50:27;56592.72;;;-142.13;76.22
11712;BME280;5912;51.034;6.984;2023-11-21T02:52:52;56638.78;;;-142.13;76.44
11712;BME280;5912;51.034;6.984;2023-11-21T02:55:18;56592.72;;;-142.13;76.42
11712;BME280;5912;51.034;6.984;2023-11-21T02:57:43;56622.75;;;-142.13;76.34
11712;BME280;5912;51.034;6.984;2023-11-21T03:00:09;56602.72;;;-142.13;76.22
11712;BME280;5912;51.034;6.984;2023-11-21T03:02:40;56632.78;;;-142.13;75.93
11712;BME280;5912;51.034;6.984;2023-11-21T03:05:06;56604.72;;;-142.13;76.25
11712;BME280;5912;51.034;6.984;2023-11-21T03:07:31;56644.81;;;-142.13;75.89
11712;BME280;5912;51.034;6.984;2023-11-21T03:09:57;56626.78;;;-142.13;76.10
11712;BME280;5912;51.034;6.984;2023-11-21T03:12:22;56622.75;;;-142.13;76.07
11712;BME280;5912;51.034;6.984;2023-11-21T03:14:48;56610.75;;;-142.13;76.32
11712;BME280;5912;51.034;6.984;2023-11-21T03:17:13;56600.72;;;-142.13;76.23
11712;BME280;5912;51.034;6.984;2023-11-21T03:19:41;56606.75;;;-142.13;75.74
11712;BME280;5912;51.034;6.984;2023-11-21T03:22:06;56612.75;;;-142.13;75.97
11712;BME280;5912;51.034;6.984;2023-11-21T03:24:32;56588.69;;;-142.13;76.27
11712;BME280;5912;51.034;6.984;2023-11-21T03:26:57;56588.69;;;-142.13;75.71
11712;BME280;5912;51.034;6.984;2023-11-21T03:29:22;56602.72;;;-142.13;75.79
11712;BME280;5912;51.034;6.984;2023-11-21T03:31:48;56598.72;;;-142.13;76.04
11712;BME280;5912;51.034;6.984;2023-11-21T03:34:24;56600.72;;;-142.13;75.61
11712;BME280;5912;51.034;6.984;2023-11-21T03:36:51;56610.75;;;-142.13;75.81
11712;BME280;5912;51.034;6.984;2023-11-21T03:39:16;56624.75;;;-142.13;75.92
11712;BME280;5912;51.034;6.984;2023-11-21T03:41:41;56580.69;;;-142.13;76.23
11712;BME280;5912;51.034;6.984;2023-11-21T03:44:07;56616.75;;;-142.13;75.72
11712;BME280;5912;51.034;6.984;2023-11-21T03:46:32;56620.75;;;-142.13;75.61
11712;BME280;5912;51.034;6.984;2023-11-21T03:48:57;56574.69;;;-142.13;75.67
11712;BME280;5912;51.034;6.984;2023-11-21T03:51:23;56580.69;;;-142.13;75.59
11712;BME280;5912;51.034;6.984;2023-11-21T03:53:48;56592.72;;;-142.13;75.79
11712;BME280;5912;51.034;6.984;2023-11-21T03:56:14;56600.72;;;-142.13;76.06
11712;BME280;5912;51.034;6.984;2023-11-21T03:58:39;56604.72;;;-142.13;76.05
11712;BME280;5912;51.034;6.984;2023-11-21T04:01:04;56614.75;;;-142.13;76.02
11712;BME280;5912;51.034;6.984;2023-11-21T04:03:30;56644.81;;;-142.13;76.19
11712;BME280;5912;51.034;6.984;2023-11-21T04:05:55;56600.72;;;-142.13;75.72
11712;BME280;5912;51.034;6.984;2023-11-21T04:08:20;56632.78;;;-142.13;75.79
11712;BME280;5912;51.034;6.984;2023-11-21T04:10:46;56604.72;;;-142.13;75.62
11712;BME280;5912;51.034;6.984;2023-11-21T04:13:17;56598.72;;;-142.13;76.03
11712;BME280;5912;51.034;6.984;2023-11-21T04:15:42;56622.75;;;-142.13;75.91
11712;BME280;5912;51.034;6.984;2023-11-21T04:18:08;56590.72;;;-142.13;75.98
11712;BME280;5912;51.034;6.984;2023-11-21T04:20:33;56620.75;;;-142.13;76.08
11712;BME280;5912;51.034;6.984;2023-11-21T04:22:58;56584.69;;;-142.13;75.79
11712;BME280;5912;51.034;6.984;2023-11-21T04:25:24;56612.75;;;-142.13;75.92
11712;BME280;5912;51.034;6.984;2023-11-21T04:27:49;56598.72;;;-142.13;75.66
11712;BME280;5912;51.034;6.984;2023-11-21T04:30:15;56568.66;;;-142.13;75.71
11712;BME280;5912;51.034;6.984;2023-11-21T04:32:40;56612.75;;;-142.13;75.75
11712;BME280;5912;51.034;6.984;2023-11-21T04:35:07;56590.72;;;-142.13;75.79
11712;BME280;5912;51.034;6.984;2023-11-21T04:37:33;56616.75;;;-142.13;75.90
11712;BME280;5912;51.034;6.984;2023-11-21T04:39:59;56604.72;;;-142.13;75.63
11712;BME280;5912;51.034;6.984;2023-11-21T04:42:24;56596.72;;;-142.13;76.04
11712;BME280;5912;51.034;6.984;2023-11-21T04:44:49;56620.75;;;-142.13;75.99
11712;BME280;5912;51.034;6.984;2023-11-21T04:47:15;56618.75;;;-142.13;75.90
11712;BME280;5912;51.034;6.984;2023-11-21T04:49:43;56626.78;;;-142.13;75.44
11712;BME280;5912;51.034;6.984;2023-11-21T04:52:12;56594.72;;;-142.13;75.63
11712;BME280;5912;51.034;6.984;2023-11-21T04:54:37;56624.75;;;-142.13;75.90
11712;BME280;5912;51.034;6.984;2023-11-21T04:57:02;56596.72;;;-142.13;75.71
11712;BME280;5912;51.034;6.984;2023-11-21T04:59:28;56624.75;;;-142.13;75.48
11712;BME280;5912;51.034;6.984;2023-11-21T05:01:54;56598.72;;;-142.13;75.65
11712;BME280;5912;51.034;6.984;2023-11-21T05:04:20;56596.72;;;-142.13;75.53
11712;BME280;5912;51.034;6.984;2023-11-21T05:06:47;56594.72;;;-142.13;75.40
11712;BME280;5912;51.034;6.984;2023-11-21T05:09:13;56596.72;;;-142.13;75.64
11712;BME280;5912;51.034;6.984;2023-11-21T05:11:41;56626.78;;;-142.13;75.66
11712;BME280;5912;51.034;6.984;2023-11-21T05:14:06;56630.78;;;-142.13;75.85
11712;BME280;5912;51.034;6.984;2023-11-21T05:16:32;56616.75;;;-142.13;75.94
11712;BME280;5912;51.034;6.984;2023-11-21T05:18:58;56610.75;;;-142.13;76.14
11712;BME280;5912;51.034;6.984;2023-11-21T05:21:28;56612.75;;;-142.13;76.16
11712;BME280;5912;51.034;6.984;2023-11-21T05:23:55;56578.69;;;-142.13;75.79
11712;BME280;5912;51.034;6.984;2023-11-21T05:26:20;56660.81;;;-142.13;76.08
11712;BME280;5912;51.034;6.984;2023-11-21T05:28:46;56616.75;;;-142.13;75.88
11712;BME280;5912;51.034;6.984;2023-11-21T05:31:11;56588.69;;;-142.13;75.89
11712;BME280;5912;51.034;6.984;2023-11-21T05:33:36;56618.75;;;-142.13;76.12
11712;BME280;5912;51.034;6.984;2023-11-21T05:36:02;56618.75;;;-142.13;75.96
11712;BME280;5912;51.034;6.984;2023-11-21T05:38:28;56608.75;;;-142.13;75.81
11712;BME280;5912;51.034;6.984;2023-11-21T05:40:53;56630.78;;;-142.13;75.71
11712;BME280;5912;51.034;6.984;2023-11-21T05:43:19;56600.72;;;-142.13;75.88
11712;BME280;5912;51.034;6.984;2023-11-21T05:45:44;56594.72;;;-142.13;75.89
11712;BME280;5912;51.034;6.984;2023-11-21T05:48:10;56614.75;;;-142.13;75.74
11712;BME280;5912;51.034;6.984;2023-11-21T05:50:35;56604.72;;;-142.13;75.69
11712;BME280;5912;51.034;6.984;2023-11-21T05:53:02;56622.75;;;-142.13;75.83
11712;BME280;5912;51.034;6.984;2023-11-21T05:55:28;56630.78;;;-142.13;75.95
11712;BME280;5912;51.034;6.984;2023-11-21T05:57:53;56620.75;;;-142.13;76.31
11712;BME280;5912;51.034;6.984;2023-11-21T06:00:20;56614.75;;;-142.13;75.97
11712;BME280;5912;51.034;6.984;2023-11-21T06:02:47;56630.78;;;-142.13;75.98
11712;BME280;5912;51.034;6.984;2023-11-21T06:05:15;56630.78;;;-142.13;75.91
11712;BME280;5912;51.034;6.984;2023-11-21T06:07:40;56638.78;;;-142.13;76.39
11712;BME280;5912;51.034;6.984;2023-11-21T06:10:07;56628.78;;;-142.13;76.24
11712;BME280;5912;51.034;6.984;2023-11-21T06:12:37;56592.72;;;-142.13;76.30
11712;BME280;5912;51.034;6.984;2023-11-21T06:15:03;56632.78;;;-142.13;76.32
11712;BME280;5912;51.034;6.984;2023-11-21T06:17:30;56612.75;;;-142.13;76.00
11712;BME280;5912;51.034;6.984;2023-11-21T06:20:11;56578.69;;;-142.13;76.33
11712;BME280;5912;51.034;6.984;2023-11-21T06:22:44;56636.78;;;-142.13;76.31
11712;BME280;5912;51.034;6.984;2023-11-21T06:25:10;56614.75;;;-142.13;75.96
11712;BME280;5912;51.034;6.984;2023-11-21T06:27:39;56644.81;;;-142.13;76.18
11712;BME280;5912;51.034;6.984;2023-11-21T06:30:06;56636.78;;;-142.13;76.16
11712;BME280;5912;51.034;6.984;2023-11-21T06:32:32;56600.72;;;-142.13;75.90
11712;BME280;5912;51.034;6.984;2023-11-21T06:34:57;56606.75;;;-142.13;76.07
11712;BME280;5912;51.034;6.984;2023-11-21T06:37:26;56636.78;;;-142.13;76.26
11712;BME280;5912;51.034;6.984;2023-11-21T06:39:51;56618.75;;;-142.13;76.36
11712;BME280;5912;51.034;6.984;2023-11-21T06:42:17;56624.75;;;-142.13;76.09
11712;BME280;5912;51.034;6.984;2023-11-21T06:44:44;56636.78;;;-142.13;76.27
11712;BME280;5912;51.034;6.984;2023-11-21T06:47:10;56594.72;;;-142.13;76.36
11712;BME280;5912;51.034;6.984;2023-11-21T06:49:52;56568.66;;;-142.13;76.30
11712;BME280;5912;51.034;6.984;2023-11-21T06:52:18;56628.78;;;-142.13;76.40
11712;BME280;5912;51.034;6.984;2023-11-21T06:54:44;56632.78;;;-142.13;76.04
11712;BME280;5912;51.034;6.984;2023-11-21T06:57:10;56616.75;;;-142.13;76.24
11712;BME280;5912;51.034;6.984;2023-11-21T06:59:35;56588.69;;;-142.13;76.17
11712;BME280;5912;51.034;6.984;2023-11-21T07:02:01;56626.78;;;-142.13;76.13
11712;BME280;5912;51.034;6.984;2023-11-21T07:04:26;56642.78;;;-142.13;76.27
11712;BME280;5912;51.034;6.984;2023-11-21T07:06:53;56630.78;;;-142.13;76.12
11712;BME280;5912;51.034;6.984;2023-11-21T07:11:53;56608.75;;;-142.13;76.44
11712;BME280;5912;51.034;6.984;2023-11-21T07:14:19;56604.72;;;-142.13;76.33
11712;BME280;5912;51.034;6.984;2023-11-21T07:16:45;56660.81;;;-142.13;76.58
11712;BME280;5912;51.034;6.984;2023-11-21T07:19:10;56576.69;;;-142.13;76.56
11712;BME280;5912;51.034;6.984;2023-11-21T07:21:37;56620.75;;;-142.13;76.65
11712;BME280;5912;51.034;6.984;2023-11-21T07:24:03;56614.75;;;-142.13;76.62
11712;BME280;5912;51.034;6.984;2023-11-21T07:26:29;56616.75;;;-142.13;76.69
11712;BME280;5912;51.034;6.984;2023-11-21T07:28:55;56584.69;;;-142.13;76.32
11712;BME280;5912;51.034;6.984;2023-11-21T07:31:21;56586.69;;;-142.13;76.23
11712;BME280;5912;51.034;6.984;2023-11-21T07:33:47;56580.69;;;-142.13;76.63
11712;BME280;5912;51.034;6.984;2023-11-21T07:36:13;56628.78;;;-142.13;76.20
11712;BME280;5912;51.034;6.984;2023-11-21T07:38:38;56624.75;;;-142.13;76.33
11712;BME280;5912;51.034;6.984;2023-11-21T07:41:05;56616.75;;;-142.13;75.97
11712;BME280;5912;51.034;6.984;2023-11-21T07:43:33;56584.69;;;-142.13;76.25
11712;BME280;5912;51.034;6.984;2023-11-21T07:46:01;56616.75;;;-142.13;75.95
11712;BME280;5912;51.034;6.984;2023-11-21T07:48:32;56600.72;;;-142.13;76.00
11712;BME280;5912;51.034;6.984;2023-11-21T07:50:58;56588.69;;;-142.13;76.16
11712;BME280;5912;51.034;6.984;2023-11-21T07:53:26;56614.75;;;-142.13;76.04
11712;BME280;5912;51.034;6.984;2023-11-21T07:55:54;56616.75;;;-142.13;76.27
11712;BME280;5912;51.034;6.984;2023-11-21T07:58:19;56592.72;;;-142.13;76.10
11712;BME280;5912;51.034;6.984;2023-11-21T08:00:44;56596.72;;;-142.13;76.23
11712;BME280;5912;51.034;6.984;2023-11-21T08:03:10;56598.72;;;-142.13;75.83
11712;BME280;5912;51.034;6.984;2023-11-21T08:05:36;56600.72;;;-142.13;75.98
11712;BME280;5912;51.034;6.984;2023-11-21T08:08:02;56590.72;;;-142.13;76.06
11712;BME280;5912;51.034;6.984;2023-11-21T08:10:27;56586.69;;;-142.13;75.80
11712;BME280;5912;51.034;6.984;2023-11-21T08:12:52;56600.72;;;-142.13;75.48
11712;BME280;5912;51.034;6.984;2023-11-21T08:15:18;56568.66;;;-142.13;75.67
11712;BME280;5912;51.034;6.984;2023-11-21T08:17:44;56564.66;;;-142.13;75.15
11712;BME280;5912;51.034;6.984;2023-11-21T08:20:10;56576.69;;;-142.13;75.28
11712;BME280;5912;51.034;6.984;2023-11-21T08:22:36;56564.66;;;-142.13;75.16
11712;BME280;5912;51.034;6.984;2023-11-21T08:25:01;56564.66;;;-142.13;75.15
11712;BME280;5912;51.034;6.984;2023-11-21T08:27:29;56564.66;;;-142.13;75.02
11712;BME280;5912;51.034;6.984;2023-11-21T08:29:54;56572.69;;;-142.13;74.75
11712;BME280;5912;51.034;6.984;2023-11-21T08:32:21;56562.66;;;-142.13;74.48
11712;BME280;5912;51.034;6.984;2023-11-21T08:34:47;56590.72;;;-142.13;74.78
11712;BME280;5912;51.034;6.984;2023-11-21T08:37:16;56632.78;;;-142.13;74.90
11712;BME280;5912;51.034;6.984;2023-11-21T08:39:41;56576.69;;;-142.13;74.50
11712;BME280;5912;51.034;6.984;2023-11-21T08:42:07;56574.69;;;-142.13;74.43
11712;BME280;5912;51.034;6.984;2023-11-21T08:44:33;56560.66;;;-142.13;74.50
11712;BME280;5912;51.034;6.984;2023-11-21T08:46:58;56592.72;;;-142.13;74.48
11712;BME280;5912;51.034;6.984;2023-11-21T08:49:23;56560.66;;;-142.13;74.51
11712;BME280;5912;51.034;6.984;2023-11-21T08:51:51;56584.69;;;-142.13;74.58
11712;BME280;5912;51.034;6.984;2023-11-21T08:54:16;56536.63;;;-142.13;74.57
11712;BME280;5912;51.034;6.984;2023-11-21T08:56:43;56682.88;;;-142.13;74.55
11712;BME280;5912;51.034;6.984;2023-11-21T08:59:08;56542.63;;;-142.13;74.44
11712;BME280;5912;51.034;6.984;2023-11-21T09:01:34;56548.63;;;-142.13;74.25
11712;BME280;5912;51.034;6.984;2023-11-21T09:03:59;56544.63;;;-142.13;73.76
11712;BME280;5912;51.034;6.984;2023-11-21T09:06:24;56560.66;;;-142.13;73.67
11712;BME280;5912;51.034;6.984;2023-11-21T09:08:50;56540.63;;;-142.13;73.55
11712;BME280;5912;51.034;6.984;2023-11-21T09:11:15;56556.66;;;-142.13;73.32
11712;BME280;5912;51.034;6.984;2023-11-21T09:13:41;56556.66;;;-142.13;73.13
11712;BME280;5912;51.034;6.984;2023-11-21T09:16:06;56548.63;;;-142.13;73.18
11712;BME280;5912;51.034;6.984;2023-11-21T09:18:32;56558.66;;;-142.13;73.29
11712;BME280;5912;51.034;6.984;2023-11-21T09:20:57;56532.63;;;-142.13;72.86
11712;BME280;5912;51.034;6.984;2023-11-21T09:23:24;56700.91;;;-142.13;72.96
11712;BME280;5912;51.034;6.984;2023-11-21T09:25:49;56532.63;;;-142.13;72.74
11712;BME280;5912;51.034;6.984;2023-11-21T09:28:15;56538.63;;;-142.13;72.64
11712;BME280;5912;51.034;6.984;2023-11-21T09:30:42;56564.66;;;-142.13;72.87
11712;BME280;5912;51.034;6.984;2023-11-21T09:33:09;56540.63;;;-142.13;72.80
11712;BME280;5912;51.034;6.984;2023-11-21T09:35:37;56542.63;;;-142.13;72.82
11712;BME280;5912;51.034;6.984;2023-11-21T09:38:03;56532.63;;;-142.13;72.49
11712;BME280;5912;51.034;6.984;2023-11-21T09:40:30;56744.97;;;-142.13;72.38
11712;BME280;5912;51.034;6.984;2023-11-21T09:42:57;56550.63;;;-142.13;72.44
11712;BME280;5912;51.034;6.984;2023-11-21T09:45:27;56574.69;;;-142.13;72.31
11712;BME280;5912;51.034;6.984;2023-11-21T09:47:54;56546.63;;;-142.13;72.19
11712;BME280;5912;51.034;6.984;2023-11-21T09:50:21;56538.63;;;-142.13;72.27
11712;BME280;5912;51.034;6.984;2023-11-21T09:55:27;56554.66;;;-142.13;71.98
11712;BME280;5912;51.034;6.984;2023-11-21T09:58:00;56510.56;;;-142.13;71.68
11712;BME280;5912;51.034;6.984;2023-11-21T10:00:27;56536.63;;;-142.13;71.75
11712;BME280;5912;51.034;6.984;2023-11-21T10:03:12;56540.63;;;-142.13;71.49
11712;BME280;5912;51.034;6.984;2023-11-21T10:05:40;56552.66;;;-142.13;71.97
11712;BME280;5912;51.034;6.984;2023-11-21T10:08:10;56528.59;;;-142.13;71.80
11712;BME280;5912;51.034;6.984;2023-11-21T10:10:46;56542.63;;;-142.13;71.72
11712;BME280;5912;51.034;6.984;2023-11-21T10:16:38;56552.66;;;-142.13;72.18
11712;BME280;5912;51.034;6.984;2023-11-21T10:19:04;56524.59;;;-142.13;71.36
11712;BME280;5912;51.034;6.984;2023-11-21T10:21:32;56536.63;;;-142.13;71.27
11712;BME280;5912;51.034;6.984;2023-11-21T10:23:58;56508.56;;;-142.13;71.49
11712;BME280;5912;51.034;6.984;2023-11-21T10:26:26;56496.56;;;-142.13;71.09
11712;BME280;5912;51.034;6.984;2023-11-21T10:29:02;56536.63;;;-142.13;71.30
11712;BME280;5912;51.034;6.984;2023-11-21T10:31:30;56524.59;;;-142.13;71.44
11712;BME280;5912;51.034;6.984;2023-11-21T10:34:15;56508.56;;;-142.13;70.50
11712;BME280;5912;51.034;6.984;2023-11-21T10:36:41;56522.59;;;-142.13;70.11
11712;BME280;5912;51.034;6.984;2023-11-21T10:39:07;56564.66;;;-142.13;70.63
11712;BME280;5912;51.034;6.984;2023-11-21T10:41:32;56556.66;;;-142.13;70.60
11712;BME280;5912;51.034;6.984;2023-11-21T10:43:58;56524.59;;;-142.13;70.39
11712;BME280;5912;51.034;6.984;2023-11-21T10:46:23;56520.59;;;-142.13;70.16
11712;BME280;5912;51.034;6.984;2023-11-21T10:48:54;56524.59;;;-142.13;69.34
11712;BME280;5912;51.034;6.984;2023-11-21T10:51:22;56510.56;;;-142.13;69.74
11712;BME280;5912;51.034;6.984;2023-11-21T10:53:51;56498.56;;;-142.13;69.80
11712;BME280;5912;51.034;6.984;2023-11-21T10:56:18;56518.59;;;-142.13;69.76
11712;BME280;5912;51.034;6.984;2023-11-21T10:58:45;56532.63;;;-142.13;69.27
11712;BME280;5912;51.034;6.984;2023-11-21T11:01:11;56516.59;;;-142.13;69.26
11712;BME280;5912;51.034;6.984;2023-11-21T11:03:37;56496.56;;;-142.13;69.24
11712;BME280;5912;51.034;6.984;2023-11-21T11:06:05;56532.63;;;-142.13;69.33
11712;BME280;5912;51.034;6.984;2023-11-21T11:08:33;56492.53;;;-142.13;69.27
11712;BME280;5912;51.034;6.984;2023-11-21T11:11:00;56534.63;;;-142.13;69.20
11712;BME280;5912;51.034;6.984;2023-11-21T11:13:25;56516.59;;;-142.13;69.56
11712;BME280;5912;51.034;6.984;2023-11-21T11:15:59;56512.59;;;-142.13;69.20
11712;BME280;5912;51.034;6.984;2023-11-21T11:18:25;56504.56;;;-142.13;69.63
11712;BME280;5912;51.034;6.984;2023-11-21T11:20:51;56506.56;;;-142.13;69.41
11712;BME280;5912;51.034;6.984;2023-11-21T11:28:44;56522.59;;;-142.13;68.55
11712;BME280;5912;51.034;6.984;2023-11-21T11:31:27;56512.59;;;-142.13;68.49
11712;BME280;5912;51.034;6.984;2023-11-21T11:37:00;56520.59;;;-142.13;68.42
11712;BME280;5912;51.034;6.984;2023-11-21T11:39:35;56512.59;;;-142.13;68.42
11712;BME280;5912;51.034;6.984;2023-11-21T11:42:03;56468.50;;;-142.13;67.91
11712;BME280;5912;51.034;6.984;2023-11-21T11:47:25;56496.56;;;-142.13;67.13
11712;BME280;5912;51.034;6.984;2023-11-21T11:55:03;56484.53;;;-142.13;66.65
11712;BME280;5912;51.034;6.984;2023-11-21T11:57:34;56468.50;;;-142.13;66.45
11712;BME280;5912;51.034;6.984;2023-11-21T12:02:41;56496.56;;;-142.13;66.00
11712;BME280;5912;51.034;6.984;2023-11-21T12:05:14;56534.63;;;-142.13;66.30
11712;BME280;5912;51.034;6.984;2023-11-21T12:07:54;56484.53;;;-142.13;66.24
11712;BME280;5912;51.034;6.984;2023-11-21T12:10:24;56494.56;;;-142.13;66.26
11712;BME280;5912;51.034;6.984;2023-11-21T12:12:55;56492.53;;;-142.13;66.82
11712;BME280;5912;51.034;6.984;2023-11-21T12:15:21;56484.53;;;-142.13;67.42
11712;BME280;5912;51.034;6.984;2023-11-21T12:17:47;56502.56;;;-142.13;67.59
11712;BME280;5912;51.034;6.984;2023-11-21T12:20:15;56488.53;;;-142.13;67.54
11712;BME280;5912;51.034;6.984;2023-11-21T12:23:05;56510.56;;;-142.13;67.05
11712;BME280;5912;51.034;6.984;2023-11-21T12:25:31;56480.53;;;-142.13;66.59
11712;BME280;5912;51.034;6.984;2023-11-21T12:27:59;56500.56;;;-142.13;66.63
11712;BME280;5912;51.034;6.984;2023-11-21T12:30:26;56508.56;;;-142.13;66.97
11712;BME280;5912;51.034;6.984;2023-11-21T12:32:55;56526.59;;;-142.13;67.28
11712;BME280;5912;51.034;6.984;2023-11-21T12:35:34;56502.56;;;-142.13;67.76
11712;BME280;5912;51.034;6.984;2023-11-21T12:38:01;56484.53;;;-142.13;68.10
11712;BME280;5912;51.034;6.984;2023-11-21T12:40:34;56492.53;;;-142.13;68.42
11712;BME280;5912;51.034;6.984;2023-11-21T12:43:00;56514.59;;;-142.13;68.19
11712;BME280;5912;51.034;6.984;2023-11-21T12:45:27;56514.59;;;-142.13;68.02
11712;BME280;5912;51.034;6.984;2023-11-21T12:47:57;56500.56;;;-142.13;68.28
11712;BME280;5912;51.034;6.984;2023-11-21T12:50:26;56504.56;;;-142.13;68.16
11712;BME280;5912;51.034;6.984;2023-11-21T12:52:57;56534.63;;;-142.13;68.03
11712;BME280;5912;51.034;6.984;2023-11-21T12:55:23;56464.50;;;-142.13;68.25
11712;BME280;5912;51.034;6.984;2023-11-21T12:57:55;56472.50;;;-142.13;68.03
11712;BME280;5912;51.034;6.984;2023-11-21T13:00:28;56522.59;;;-142.13;67.40
11712;BME280;5912;51.034;6.984;2023-11-21T13:02:56;56516.59;;;-142.13;67.34
11712;BME280;5912;51.034;6.984;2023-11-21T13:05:26;56524.59;;;-142.13;66.71
11712;BME280;5912;51.034;6.984;2023-11-21T13:07:52;56722.94;;;-142.13;66.82
11712;BME280;5912;51.034;6.984;2023-11-21T13:10:21;56480.53;;;-142.13;67.08
11712;BME280;5912;51.034;6.984;2023-11-21T13:12:52;56462.50;;;-142.13;67.11
11712;BME280;5912;51.034;6.984;2023-11-21T13:15:18;56516.59;;;-142.13;66.86
11712;BME280;5912;51.034;6.984;2023-11-21T13:17:45;56504.56;;;-142.13;66.56